sensor_id;sensor_type;location;lat;lon;timestamp;temperature;humidity
18950;DHT22;9608;49.288;8.130;2022-09-01T00:00:07;18.00;99.90
18950;DHT22;9608;49.288;8.130;2022-09-01T00:02:35;18.00;99.90
18950;DHT22;9608;49.288;8.130;2022-09-01T00:05:03;18.00;99.90
18950;DHT22;9608;49.288;8.130;2022-09-01T00:07:32;18.00;99.90
18950;DHT22;9608;49.288;8.130;2022-09-01T00:10:01;17.90;99.90
18950;DHT22;9608;49.288;8.130;2022-09-01T00:12:30;17.90;99.90
18950;DHT22;9608;49.288;8.130;2022-09-01T00:14:57;17.80;99.90
18950;DHT22;9608;49.288;8.130;2022-09-01T00:17:24;17.80;99.90
18950;DHT22;9608;49.288;8.130;2022-09-01T00:19:51;17.80;99.90
18950;DHT22;9608;49.288;8.130;2022-09-01T00:22:18;17.80;99.90
18950;DHT22;9608;49.288;8.130;2022-09-01T00:24:45;17.80;99.90
18950;DHT22;9608;49.288;8.130;2022-09-01T00:27:12;17.80;99.90
18950;DHT22;9608;49.288;8.130;2022-09-01T00:29:40;17.80;99.90
18950;DHT22;9608;49.288;8.130;2022-09-01T00:32:07;17.70;99.90
18950;DHT22;9608;49.288;8.130;2022-09-01T00:34:33;17.70;99.90
18950;DHT22;9608;49.288;8.130;2022-09-01T00:37:00;17.70;99.90
18950;DHT22;9608;49.288;8.130;2022-09-01T00:39:27;17.70;99.90
18950;DHT22;9608;49.288;8.130;2022-09-01T00:41:54;17.70;99.90
18950;DHT22;9608;49.288;8.130;2022-09-01T00:44:21;17.60;99.90
18950;DHT22;9608;49.288;8.130;2022-09-01T00:46:54;17.60;99.90
18950;DHT22;9608;49.288;8.130;2022-09-01T00:49:25;17.60;99.90
18950;DHT22;9608;49.288;8.130;2022-09-01T00:51:56;17.60;99.90
18950;DHT22;9608;49.288;8.130;2022-09-01T00:54:26;17.60;99.90
18950;DHT22;9608;49.288;8.130;2022-09-01T00:56:54;17.60;99.90
18950;DHT22;9608;49.288;8.130;2022-09-01T00:59:23;17.60;99.90
18950;DHT22;9608;49.288;8.130;2022-09-01T01:01:51;17.60;99.90
18950;DHT22;9608;49.288;8.130;2022-09-01T01:04:18;17.50;99.90
18950;DHT22;9608;49.288;8.130;2022-09-01T01:06:47;17.50;99.90
18950;DHT22;9608;49.288;8.130;2022-09-01T01:09:23;17.40;99.90
18950;DHT22;9608;49.288;8.130;2022-09-01T01:11:51;17.30;99.90
18950;DHT22;9608;49.288;8.130;2022-09-01T01:14:18;17.30;99.90
18950;DHT22;9608;49.288;8.130;2022-09-01T01:16:46;17.30;99.90
18950;DHT22;9608;49.288;8.130;2022-09-01T01:19:22;17.30;99.90
18950;DHT22;9608;49.288;8.130;2022-09-01T01:22:13;17.30;99.90
18950;DHT22;9608;49.288;8.130;2022-09-01T01:25:01;17.30;99.90
18950;DHT22;9608;49.288;8.130;2022-09-01T01:27:31;17.30;99.90
18950;DHT22;9608;49.288;8.130;2022-09-01T01:30:00;17.20;99.90
18950;DHT22;9608;49.288;8.130;2022-09-01T01:32:27;17.20;99.90
18950;DHT22;9608;49.288;8.130;2022-09-01T01:34:54;17.10;99.90
18950;DHT22;9608;49.288;8.130;2022-09-01T01:37:22;17.10;99.90
18950;DHT22;9608;49.288;8.130;2022-09-01T01:39:50;17.10;99.90
18950;DHT22;9608;49.288;8.130;2022-09-01T01:42:18;17.20;99.90
18950;DHT22;9608;49.288;8.130;2022-09-01T01:44:45;17.10;99.90
18950;DHT22;9608;49.288;8.130;2022-09-01T01:47:14;17.00;99.90
18950;DHT22;9608;49.288;8.130;2022-09-01T01:49:42;17.00;99.90
18950;DHT22;9608;49.288;8.130;2022-09-01T01:52:10;16.90;99.90
18950;DHT22;9608;49.288;8.130;2022-09-01T01:54:42;17.00;99.90
18950;DHT22;9608;49.288;8.130;2022-09-01T01:57:10;16.90;99.90
18950;DHT22;9608;49.288;8.130;2022-09-01T01:59:43;16.80;99.90
18950;DHT22;9608;49.288;8.130;2022-09-01T02:02:10;16.80;99.90
18950;DHT22;9608;49.288;8.130;2022-09-01T02:04:37;16.80;99.90
18950;DHT22;9608;49.288;8.130;2022-09-01T02:07:09;16.80;99.90
18950;DHT22;9608;49.288;8.130;2022-09-01T02:09:37;16.70;99.90
18950;DHT22;9608;49.288;8.130;2022-09-01T02:12:06;16.80;99.90
18950;DHT22;9608;49.288;8.130;2022-09-01T02:14:32;16.90;99.90
18950;DHT22;9608;49.288;8.130;2022-09-01T02:17:01;17.00;99.90
18950;DHT22;9608;49.288;8.130;2022-09-01T02:19:30;16.90;99.90
18950;DHT22;9608;49.288;8.130;2022-09-01T02:21:58;16.90;99.90
18950;DHT22;9608;49.288;8.130;2022-09-01T02:24:25;16.90;99.90
18950;DHT22;9608;49.288;8.130;2022-09-01T02:26:56;16.90;99.90
18950;DHT22;9608;49.288;8.130;2022-09-01T02:29:25;16.90;99.90
18950;DHT22;9608;49.288;8.130;2022-09-01T02:31:54;16.80;99.90
18950;DHT22;9608;49.288;8.130;2022-09-01T02:34:24;16.80;99.90
18950;DHT22;9608;49.288;8.130;2022-09-01T02:36:54;16.70;99.90
18950;DHT22;9608;49.288;8.130;2022-09-01T02:39:23;16.70;99.90
18950;DHT22;9608;49.288;8.130;2022-09-01T02:41:50;16.60;99.90
18950;DHT22;9608;49.288;8.130;2022-09-01T02:44:18;16.60;99.90
18950;DHT22;9608;49.288;8.130;2022-09-01T02:46:47;16.60;99.90
18950;DHT22;9608;49.288;8.130;2022-09-01T02:49:16;16.40;99.90
18950;DHT22;9608;49.288;8.130;2022-09-01T02:51:50;16.40;99.90
18950;DHT22;9608;49.288;8.130;2022-09-01T02:54:19;16.50;99.90
18950;DHT22;9608;49.288;8.130;2022-09-01T02:56:50;16.50;99.90
18950;DHT22;9608;49.288;8.130;2022-09-01T02:59:20;16.50;99.90
18950;DHT22;9608;49.288;8.130;2022-09-01T03:01:48;16.60;99.90
18950;DHT22;9608;49.288;8.130;2022-09-01T03:04:16;16.60;99.90
18950;DHT22;9608;49.288;8.130;2022-09-01T03:06:44;16.50;99.90
18950;DHT22;9608;49.288;8.130;2022-09-01T03:09:14;16.50;99.90
18950;DHT22;9608;49.288;8.130;2022-09-01T03:11:43;16.30;99.90
18950;DHT22;9608;49.288;8.130;2022-09-01T03:14:11;16.30;99.90
18950;DHT22;9608;49.288;8.130;2022-09-01T03:16:38;16.30;99.90
18950;DHT22;9608;49.288;8.130;2022-09-01T03:19:06;16.30;99.90
18950;DHT22;9608;49.288;8.130;2022-09-01T03:21:34;16.30;99.90
18950;DHT22;9608;49.288;8.130;2022-09-01T03:24:02;16.30;99.90
18950;DHT22;9608;49.288;8.130;2022-09-01T03:26:30;16.30;99.90
18950;DHT22;9608;49.288;8.130;2022-09-01T03:28:57;16.40;99.90
18950;DHT22;9608;49.288;8.130;2022-09-01T03:31:25;16.40;99.90
18950;DHT22;9608;49.288;8.130;2022-09-01T03:33:52;16.50;99.90
18950;DHT22;9608;49.288;8.130;2022-09-01T03:36:22;16.50;99.90
18950;DHT22;9608;49.288;8.130;2022-09-01T03:38:50;16.60;99.90
18950;DHT22;9608;49.288;8.130;2022-09-01T03:41:20;16.50;99.90
18950;DHT22;9608;49.288;8.130;2022-09-01T03:43:48;16.60;99.90
18950;DHT22;9608;49.288;8.130;2022-09-01T03:46:17;16.70;99.90
18950;DHT22;9608;49.288;8.130;2022-09-01T03:48:46;16.70;99.90
18950;DHT22;9608;49.288;8.130;2022-09-01T03:51:15;16.70;99.90
18950;DHT22;9608;49.288;8.130;2022-09-01T03:53:42;16.70;99.90
18950;DHT22;9608;49.288;8.130;2022-09-01T03:56:10;16.70;99.90
18950;DHT22;9608;49.288;8.130;2022-09-01T03:58:39;16.70;99.90
18950;DHT22;9608;49.288;8.130;2022-09-01T04:01:09;16.60;99.90
18950;DHT22;9608;49.288;8.130;2022-09-01T04:03:37;16.60;99.90
18950;DHT22;9608;49.288;8.130;2022-09-01T04:06:07;16.60;99.90
18950;DHT22;9608;49.288;8.130;2022-09-01T04:08:35;16.60;99.90
18950;DHT22;9608;49.288;8.130;2022-09-01T04:11:04;16.50;99.90
18950;DHT22;9608;49.288;8.130;2022-09-01T04:13:36;16.50;99.90
18950;DHT22;9608;49.288;8.130;2022-09-01T04:16:04;16.50;99.90
18950;DHT22;9608;49.288;8.130;2022-09-01T04:18:36;16.40;99.90
18950;DHT22;9608;49.288;8.130;2022-09-01T04:21:04;16.40;99.90
18950;DHT22;9608;49.288;8.130;2022-09-01T04:23:34;16.40;99.90
18950;DHT22;9608;49.288;8.130;2022-09-01T04:26:03;16.30;99.90
18950;DHT22;9608;49.288;8.130;2022-09-01T04:28:36;16.30;99.90
18950;DHT22;9608;49.288;8.130;2022-09-01T04:31:06;16.30;99.90
18950;DHT22;9608;49.288;8.130;2022-09-01T04:33:36;16.20;99.90
18950;DHT22;9608;49.288;8.130;2022-09-01T04:36:06;16.20;99.90
18950;DHT22;9608;49.288;8.130;2022-09-01T04:38:35;16.20;99.90
18950;DHT22;9608;49.288;8.130;2022-09-01T04:41:03;16.20;99.90
18950;DHT22;9608;49.288;8.130;2022-09-01T04:43:30;16.20;99.90
18950;DHT22;9608;49.288;8.130;2022-09-01T04:45:57;16.10;99.90
18950;DHT22;9608;49.288;8.130;2022-09-01T04:48:24;16.10;99.90
18950;DHT22;9608;49.288;8.130;2022-09-01T04:50:52;16.20;99.90
18950;DHT22;9608;49.288;8.130;2022-09-01T04:53:21;16.10;99.90
18950;DHT22;9608;49.288;8.130;2022-09-01T04:55:49;16.00;99.90
18950;DHT22;9608;49.288;8.130;2022-09-01T04:58:17;16.10;99.90
18950;DHT22;9608;49.288;8.130;2022-09-01T05:00:45;16.10;99.90
18950;DHT22;9608;49.288;8.130;2022-09-01T05:03:14;16.10;99.90
18950;DHT22;9608;49.288;8.130;2022-09-01T05:05:46;16.00;99.90
18950;DHT22;9608;49.288;8.130;2022-09-01T05:08:17;15.90;99.90
18950;DHT22;9608;49.288;8.130;2022-09-01T05:10:46;15.90;99.90
18950;DHT22;9608;49.288;8.130;2022-09-01T05:13:15;15.90;99.90
18950;DHT22;9608;49.288;8.130;2022-09-01T05:15:44;15.90;99.90
18950;DHT22;9608;49.288;8.130;2022-09-01T05:18:13;15.80;99.90
18950;DHT22;9608;49.288;8.130;2022-09-01T05:20:41;16.00;99.90
18950;DHT22;9608;49.288;8.130;2022-09-01T05:23:10;16.00;99.90
18950;DHT22;9608;49.288;8.130;2022-09-01T05:25:41;15.90;99.90
18950;DHT22;9608;49.288;8.130;2022-09-01T05:28:10;15.90;99.90
18950;DHT22;9608;49.288;8.130;2022-09-01T05:30:38;16.00;99.90
18950;DHT22;9608;49.288;8.130;2022-09-01T05:33:06;16.10;99.90
18950;DHT22;9608;49.288;8.130;2022-09-01T05:35:37;16.20;99.90
18950;DHT22;9608;49.288;8.130;2022-09-01T05:38:08;16.20;99.90
18950;DHT22;9608;49.288;8.130;2022-09-01T05:40:38;16.20;99.90
18950;DHT22;9608;49.288;8.130;2022-09-01T05:43:07;16.30;99.90
18950;DHT22;9608;49.288;8.130;2022-09-01T05:45:38;16.40;99.90
18950;DHT22;9608;49.288;8.130;2022-09-01T05:48:08;16.40;99.90
18950;DHT22;9608;49.288;8.130;2022-09-01T05:50:39;16.50;99.90
18950;DHT22;9608;49.288;8.130;2022-09-01T05:53:08;16.60;99.90
18950;DHT22;9608;49.288;8.130;2022-09-01T05:55:42;16.70;99.90
18950;DHT22;9608;49.288;8.130;2022-09-01T05:58:13;16.70;99.90
18950;DHT22;9608;49.288;8.130;2022-09-01T06:00:42;16.80;99.90
18950;DHT22;9608;49.288;8.130;2022-09-01T06:03:09;17.00;99.90
18950;DHT22;9608;49.288;8.130;2022-09-01T06:05:37;17.00;99.90
18950;DHT22;9608;49.288;8.130;2022-09-01T06:08:07;17.10;99.90
18950;DHT22;9608;49.288;8.130;2022-09-01T06:10:35;17.10;99.90
18950;DHT22;9608;49.288;8.130;2022-09-01T06:13:05;17.10;99.90
18950;DHT22;9608;49.288;8.130;2022-09-01T06:15:34;17.20;99.90
18950;DHT22;9608;49.288;8.130;2022-09-01T06:18:04;17.10;99.90
18950;DHT22;9608;49.288;8.130;2022-09-01T06:20:31;17.20;99.90
18950;DHT22;9608;49.288;8.130;2022-09-01T06:22:59;17.20;99.90
18950;DHT22;9608;49.288;8.130;2022-09-01T06:25:27;17.30;99.90
18950;DHT22;9608;49.288;8.130;2022-09-01T06:27:55;17.30;99.90
18950;DHT22;9608;49.288;8.130;2022-09-01T06:30:23;17.40;99.90
18950;DHT22;9608;49.288;8.130;2022-09-01T06:32:52;17.60;99.90
18950;DHT22;9608;49.288;8.130;2022-09-01T06:35:19;17.80;99.90
18950;DHT22;9608;49.288;8.130;2022-09-01T06:37:49;18.00;99.90
18950;DHT22;9608;49.288;8.130;2022-09-01T06:40:17;18.20;99.90
18950;DHT22;9608;49.288;8.130;2022-09-01T06:42:44;18.50;99.90
18950;DHT22;9608;49.288;8.130;2022-09-01T06:45:12;18.80;99.90
18950;DHT22;9608;49.288;8.130;2022-09-01T06:47:39;18.90;99.90
18950;DHT22;9608;49.288;8.130;2022-09-01T06:50:10;19.10;99.90
18950;DHT22;9608;49.288;8.130;2022-09-01T06:52:39;19.00;99.90
18950;DHT22;9608;49.288;8.130;2022-09-01T06:55:08;19.10;99.90
18950;DHT22;9608;49.288;8.130;2022-09-01T06:57:35;19.20;99.90
18950;DHT22;9608;49.288;8.130;2022-09-01T07:00:04;19.40;99.90
18950;DHT22;9608;49.288;8.130;2022-09-01T07:02:42;19.40;99.90
18950;DHT22;9608;49.288;8.130;2022-09-01T07:05:11;19.30;99.90
18950;DHT22;9608;49.288;8.130;2022-09-01T07:07:41;19.30;99.90
18950;DHT22;9608;49.288;8.130;2022-09-01T07:10:08;19.20;99.90
18950;DHT22;9608;49.288;8.130;2022-09-01T07:12:36;19.50;99.90
18950;DHT22;9608;49.288;8.130;2022-09-01T07:15:06;19.50;99.90
18950;DHT22;9608;49.288;8.130;2022-09-01T07:17:33;19.40;99.90
18950;DHT22;9608;49.288;8.130;2022-09-01T07:20:00;19.40;99.90
18950;DHT22;9608;49.288;8.130;2022-09-01T07:22:29;19.40;99.90
18950;DHT22;9608;49.288;8.130;2022-09-01T07:24:56;19.40;99.90
18950;DHT22;9608;49.288;8.130;2022-09-01T07:27:22;19.30;99.90
18950;DHT22;9608;49.288;8.130;2022-09-01T07:29:52;19.40;99.90
18950;DHT22;9608;49.288;8.130;2022-09-01T07:32:20;19.40;99.90
18950;DHT22;9608;49.288;8.130;2022-09-01T07:34:47;19.40;99.90
18950;DHT22;9608;49.288;8.130;2022-09-01T07:37:14;19.70;99.90
18950;DHT22;9608;49.288;8.130;2022-09-01T07:39:43;19.90;99.90
18950;DHT22;9608;49.288;8.130;2022-09-01T07:42:10;20.00;99.90
18950;DHT22;9608;49.288;8.130;2022-09-01T07:44:37;20.30;99.90
18950;DHT22;9608;49.288;8.130;2022-09-01T07:47:04;20.10;99.90
18950;DHT22;9608;49.288;8.130;2022-09-01T07:49:34;19.60;99.90
18950;DHT22;9608;49.288;8.130;2022-09-01T07:52:02;19.30;99.90
18950;DHT22;9608;49.288;8.130;2022-09-01T07:54:29;19.50;99.90
18950;DHT22;9608;49.288;8.130;2022-09-01T07:56:59;19.50;99.90
18950;DHT22;9608;49.288;8.130;2022-09-01T07:59:26;19.80;99.90
18950;DHT22;9608;49.288;8.130;2022-09-01T08:01:54;20.10;99.90
18950;DHT22;9608;49.288;8.130;2022-09-01T08:04:22;20.40;99.90
18950;DHT22;9608;49.288;8.130;2022-09-01T08:06:49;20.50;99.90
18950;DHT22;9608;49.288;8.130;2022-09-01T08:09:16;20.40;99.90
18950;DHT22;9608;49.288;8.130;2022-09-01T08:11:42;20.30;99.90
18950;DHT22;9608;49.288;8.130;2022-09-01T08:14:11;20.30;99.90
18950;DHT22;9608;49.288;8.130;2022-09-01T08:16:37;20.20;99.90
18950;DHT22;9608;49.288;8.130;2022-09-01T08:19:04;20.40;99.90
18950;DHT22;9608;49.288;8.130;2022-09-01T08:21:31;20.40;99.90
18950;DHT22;9608;49.288;8.130;2022-09-01T08:23:58;20.40;99.90
18950;DHT22;9608;49.288;8.130;2022-09-01T08:26:25;20.10;99.90
18950;DHT22;9608;49.288;8.130;2022-09-01T08:28:52;20.00;99.90
18950;DHT22;9608;49.288;8.130;2022-09-01T08:31:22;20.20;99.90
18950;DHT22;9608;49.288;8.130;2022-09-01T08:33:50;20.40;99.90
18950;DHT22;9608;49.288;8.130;2022-09-01T08:36:17;20.40;99.90
18950;DHT22;9608;49.288;8.130;2022-09-01T08:38:44;20.20;99.90
18950;DHT22;9608;49.288;8.130;2022-09-01T08:41:17;20.10;99.90
18950;DHT22;9608;49.288;8.130;2022-09-01T08:43:55;20.40;99.90
18950;DHT22;9608;49.288;8.130;2022-09-01T08:46:28;20.70;99.90
18950;DHT22;9608;49.288;8.130;2022-09-01T08:49:00;20.90;99.90
18950;DHT22;9608;49.288;8.130;2022-09-01T08:51:34;20.90;99.90
18950;DHT22;9608;49.288;8.130;2022-09-01T08:54:06;20.70;99.90
18950;DHT22;9608;49.288;8.130;2022-09-01T08:56:36;20.70;99.90
18950;DHT22;9608;49.288;8.130;2022-09-01T08:59:06;20.40;99.90
18950;DHT22;9608;49.288;8.130;2022-09-01T09:01:40;20.50;99.90
18950;DHT22;9608;49.288;8.130;2022-09-01T09:04:18;20.60;99.90
18950;DHT22;9608;49.288;8.130;2022-09-01T09:06:54;20.60;99.90
18950;DHT22;9608;49.288;8.130;2022-09-01T09:09:27;20.80;99.90
18950;DHT22;9608;49.288;8.130;2022-09-01T09:12:09;21.00;99.90
18950;DHT22;9608;49.288;8.130;2022-09-01T09:14:49;21.10;99.90
18950;DHT22;9608;49.288;8.130;2022-09-01T09:17:23;21.20;99.90
18950;DHT22;9608;49.288;8.130;2022-09-01T09:19:53;21.20;99.90
18950;DHT22;9608;49.288;8.130;2022-09-01T09:22:20;21.20;99.90
18950;DHT22;9608;49.288;8.130;2022-09-01T09:24:50;21.20;99.90
18950;DHT22;9608;49.288;8.130;2022-09-01T09:27:22;21.20;99.90
18950;DHT22;9608;49.288;8.130;2022-09-01T09:29:50;21.40;99.90
18950;DHT22;9608;49.288;8.130;2022-09-01T09:32:20;21.30;99.90
18950;DHT22;9608;49.288;8.130;2022-09-01T09:34:48;21.40;99.90
18950;DHT22;9608;49.288;8.130;2022-09-01T09:37:23;21.40;99.90
18950;DHT22;9608;49.288;8.130;2022-09-01T09:40:09;21.60;99.90
18950;DHT22;9608;49.288;8.130;2022-09-01T09:42:38;21.70;99.90
18950;DHT22;9608;49.288;8.130;2022-09-01T09:45:12;21.70;99.90
18950;DHT22;9608;49.288;8.130;2022-09-01T09:47:46;21.60;99.90
18950;DHT22;9608;49.288;8.130;2022-09-01T09:50:19;21.80;99.90
18950;DHT22;9608;49.288;8.130;2022-09-01T09:52:48;21.90;99.90
18950;DHT22;9608;49.288;8.130;2022-09-01T09:55:21;21.40;99.90
18950;DHT22;9608;49.288;8.130;2022-09-01T09:57:49;21.20;99.90
18950;DHT22;9608;49.288;8.130;2022-09-01T10:00:24;21.10;99.90
18950;DHT22;9608;49.288;8.130;2022-09-01T10:02:55;21.20;99.90
18950;DHT22;9608;49.288;8.130;2022-09-01T10:05:26;21.30;99.90
18950;DHT22;9608;49.288;8.130;2022-09-01T10:07:54;21.80;99.90
18950;DHT22;9608;49.288;8.130;2022-09-01T10:10:29;22.50;99.90
18950;DHT22;9608;49.288;8.130;2022-09-01T10:12:57;22.50;99.90
18950;DHT22;9608;49.288;8.130;2022-09-01T10:15:27;22.40;99.90
18950;DHT22;9608;49.288;8.130;2022-09-01T10:18:01;22.40;99.90
18950;DHT22;9608;49.288;8.130;2022-09-01T10:20:30;22.30;99.90
18950;DHT22;9608;49.288;8.130;2022-09-01T10:23:01;22.10;99.90
18950;DHT22;9608;49.288;8.130;2022-09-01T10:25:30;22.30;99.90
18950;DHT22;9608;49.288;8.130;2022-09-01T10:28:04;22.40;99.90
18950;DHT22;9608;49.288;8.130;2022-09-01T10:30:32;22.30;99.90
18950;DHT22;9608;49.288;8.130;2022-09-01T10:33:00;22.10;99.90
18950;DHT22;9608;49.288;8.130;2022-09-01T10:35:29;22.00;99.90
18950;DHT22;9608;49.288;8.130;2022-09-01T10:37:57;22.10;99.90
18950;DHT22;9608;49.288;8.130;2022-09-01T10:40:38;22.10;99.90
18950;DHT22;9608;49.288;8.130;2022-09-01T10:43:24;22.10;99.90
18950;DHT22;9608;49.288;8.130;2022-09-01T10:45:53;22.20;99.90
18950;DHT22;9608;49.288;8.130;2022-09-01T10:48:26;22.60;99.90
18950;DHT22;9608;49.288;8.130;2022-09-01T10:54:06;22.30;99.90
18950;DHT22;9608;49.288;8.130;2022-09-01T10:56:39;22.10;99.90
18950;DHT22;9608;49.288;8.130;2022-09-01T10:59:08;22.40;99.90
18950;DHT22;9608;49.288;8.130;2022-09-01T11:02:03;23.00;99.90
18950;DHT22;9608;49.288;8.130;2022-09-01T11:07:32;23.40;99.90
18950;DHT22;9608;49.288;8.130;2022-09-01T11:10:22;23.20;99.90
18950;DHT22;9608;49.288;8.130;2022-09-01T11:13:17;23.20;99.90
18950;DHT22;9608;49.288;8.130;2022-09-01T11:15:48;22.80;99.90
18950;DHT22;9608;49.288;8.130;2022-09-01T11:18:16;22.70;99.90
18950;DHT22;9608;49.288;8.130;2022-09-01T11:20:49;22.50;99.90
18950;DHT22;9608;49.288;8.130;2022-09-01T11:23:23;22.50;99.90
18950;DHT22;9608;49.288;8.130;2022-09-01T11:25:52;22.40;99.90
18950;DHT22;9608;49.288;8.130;2022-09-01T11:28:35;22.30;99.90
18950;DHT22;9608;49.288;8.130;2022-09-01T11:31:13;22.00;99.90
18950;DHT22;9608;49.288;8.130;2022-09-01T11:33:48;22.10;99.90
18950;DHT22;9608;49.288;8.130;2022-09-01T11:36:23;22.10;99.90
18950;DHT22;9608;49.288;8.130;2022-09-01T11:39:04;22.40;99.90
18950;DHT22;9608;49.288;8.130;2022-09-01T11:41:42;22.40;99.90
18950;DHT22;9608;49.288;8.130;2022-09-01T11:44:13;22.40;99.90
18950;DHT22;9608;49.288;8.130;2022-09-01T11:46:40;22.30;99.90
18950;DHT22;9608;49.288;8.130;2022-09-01T11:49:24;22.40;99.90
18950;DHT22;9608;49.288;8.130;2022-09-01T11:51:51;22.50;99.90
18950;DHT22;9608;49.288;8.130;2022-09-01T11:54:20;22.70;99.90
18950;DHT22;9608;49.288;8.130;2022-09-01T11:56:48;23.10;99.90
18950;DHT22;9608;49.288;8.130;2022-09-01T11:59:29;23.50;99.90
18950;DHT22;9608;49.288;8.130;2022-09-01T12:01:57;24.00;99.90
18950;DHT22;9608;49.288;8.130;2022-09-01T12:04:28;24.50;99.90
18950;DHT22;9608;49.288;8.130;2022-09-01T12:06:58;24.70;99.90
18950;DHT22;9608;49.288;8.130;2022-09-01T12:09:40;24.70;99.90
18950;DHT22;9608;49.288;8.130;2022-09-01T12:12:26;23.60;99.90
18950;DHT22;9608;49.288;8.130;2022-09-01T12:14:55;23.20;99.90
18950;DHT22;9608;49.288;8.130;2022-09-01T12:17:23;23.50;99.90
18950;DHT22;9608;49.288;8.130;2022-09-01T12:19:50;23.50;99.90
18950;DHT22;9608;49.288;8.130;2022-09-01T12:22:18;23.40;99.90
18950;DHT22;9608;49.288;8.130;2022-09-01T12:24:48;23.00;99.90
18950;DHT22;9608;49.288;8.130;2022-09-01T12:27:15;23.20;99.90
18950;DHT22;9608;49.288;8.130;2022-09-01T12:29:42;23.40;99.90
18950;DHT22;9608;49.288;8.130;2022-09-01T12:32:10;23.50;99.90
18950;DHT22;9608;49.288;8.130;2022-09-01T12:34:40;23.70;99.90
18950;DHT22;9608;49.288;8.130;2022-09-01T12:37:10;23.80;99.90
18950;DHT22;9608;49.288;8.130;2022-09-01T12:39:39;24.00;99.90
18950;DHT22;9608;49.288;8.130;2022-09-01T12:42:11;24.00;99.90
18950;DHT22;9608;49.288;8.130;2022-09-01T12:44:49;24.20;99.90
18950;DHT22;9608;49.288;8.130;2022-09-01T12:47:48;24.30;99.90
18950;DHT22;9608;49.288;8.130;2022-09-01T12:50:42;24.30;99.90
18950;DHT22;9608;49.288;8.130;2022-09-01T12:53:19;24.50;99.90
18950;DHT22;9608;49.288;8.130;2022-09-01T12:58:48;25.10;99.90
18950;DHT22;9608;49.288;8.130;2022-09-01T13:01:25;25.20;99.90
18950;DHT22;9608;49.288;8.130;2022-09-01T13:04:07;25.00;99.90
18950;DHT22;9608;49.288;8.130;2022-09-01T13:06:35;25.10;99.90
18950;DHT22;9608;49.288;8.130;2022-09-01T13:09:03;25.10;99.90
18950;DHT22;9608;49.288;8.130;2022-09-01T13:11:29;25.30;99.90
18950;DHT22;9608;49.288;8.130;2022-09-01T13:13:58;25.30;99.90
18950;DHT22;9608;49.288;8.130;2022-09-01T13:16:25;25.30;99.90
18950;DHT22;9608;49.288;8.130;2022-09-01T13:18:52;25.40;99.90
18950;DHT22;9608;49.288;8.130;2022-09-01T13:21:18;25.50;99.90
18950;DHT22;9608;49.288;8.130;2022-09-01T13:23:46;25.70;99.90
18950;DHT22;9608;49.288;8.130;2022-09-01T13:26:14;25.80;99.90
18950;DHT22;9608;49.288;8.130;2022-09-01T13:28:41;25.90;99.90
18950;DHT22;9608;49.288;8.130;2022-09-01T13:31:10;26.00;99.90
18950;DHT22;9608;49.288;8.130;2022-09-01T13:33:37;26.10;99.90
18950;DHT22;9608;49.288;8.130;2022-09-01T13:36:04;26.10;99.90
18950;DHT22;9608;49.288;8.130;2022-09-01T13:38:31;26.00;99.90
18950;DHT22;9608;49.288;8.130;2022-09-01T13:40:58;25.80;99.90
18950;DHT22;9608;49.288;8.130;2022-09-01T13:43:26;25.80;99.90
18950;DHT22;9608;49.288;8.130;2022-09-01T13:45:53;25.90;99.90
18950;DHT22;9608;49.288;8.130;2022-09-01T13:48:22;26.00;99.90
18950;DHT22;9608;49.288;8.130;2022-09-01T13:50:51;26.10;99.90
18950;DHT22;9608;49.288;8.130;2022-09-01T13:53:18;26.30;99.90
18950;DHT22;9608;49.288;8.130;2022-09-01T13:55:45;26.50;99.90
18950;DHT22;9608;49.288;8.130;2022-09-01T13:58:12;26.30;99.90
18950;DHT22;9608;49.288;8.130;2022-09-01T14:00:42;26.50;99.90
18950;DHT22;9608;49.288;8.130;2022-09-01T14:03:11;26.40;99.90
18950;DHT22;9608;49.288;8.130;2022-09-01T14:05:42;26.50;99.90
18950;DHT22;9608;49.288;8.130;2022-09-01T14:08:10;26.70;99.90
18950;DHT22;9608;49.288;8.130;2022-09-01T14:10:39;26.70;99.90
18950;DHT22;9608;49.288;8.130;2022-09-01T14:13:07;26.80;99.90
18950;DHT22;9608;49.288;8.130;2022-09-01T14:15:35;26.60;99.90
18950;DHT22;9608;49.288;8.130;2022-09-01T14:18:02;26.50;99.90
18950;DHT22;9608;49.288;8.130;2022-09-01T14:20:32;26.50;99.90
18950;DHT22;9608;49.288;8.130;2022-09-01T14:23:02;26.30;99.90
18950;DHT22;9608;49.288;8.130;2022-09-01T14:25:30;26.00;99.90
18950;DHT22;9608;49.288;8.130;2022-09-01T14:27:58;25.80;99.90
18950;DHT22;9608;49.288;8.130;2022-09-01T14:30:27;25.60;99.90
18950;DHT22;9608;49.288;8.130;2022-09-01T14:32:54;25.80;99.90
18950;DHT22;9608;49.288;8.130;2022-09-01T14:35:23;25.80;99.90
18950;DHT22;9608;49.288;8.130;2022-09-01T14:37:51;25.80;99.90
18950;DHT22;9608;49.288;8.130;2022-09-01T14:40:20;26.00;99.90
18950;DHT22;9608;49.288;8.130;2022-09-01T14:42:50;25.80;99.90
18950;DHT22;9608;49.288;8.130;2022-09-01T14:45:18;25.70;99.90
18950;DHT22;9608;49.288;8.130;2022-09-01T14:47:46;25.40;99.90
18950;DHT22;9608;49.288;8.130;2022-09-01T14:50:13;25.40;99.90
18950;DHT22;9608;49.288;8.130;2022-09-01T14:52:40;25.30;99.90
18950;DHT22;9608;49.288;8.130;2022-09-01T14:55:08;25.10;99.90
18950;DHT22;9608;49.288;8.130;2022-09-01T14:57:36;25.10;99.90
18950;DHT22;9608;49.288;8.130;2022-09-01T15:00:04;25.10;99.90
18950;DHT22;9608;49.288;8.130;2022-09-01T15:02:34;25.00;99.90
18950;DHT22;9608;49.288;8.130;2022-09-01T15:05:01;25.00;99.90
18950;DHT22;9608;49.288;8.130;2022-09-01T15:07:28;24.90;99.90
18950;DHT22;9608;49.288;8.130;2022-09-01T15:09:55;24.80;99.90
18950;DHT22;9608;49.288;8.130;2022-09-01T15:12:23;24.90;99.90
18950;DHT22;9608;49.288;8.130;2022-09-01T15:14:53;25.00;99.90
18950;DHT22;9608;49.288;8.130;2022-09-01T15:17:21;25.20;99.90
18950;DHT22;9608;49.288;8.130;2022-09-01T15:19:47;25.50;99.90
18950;DHT22;9608;49.288;8.130;2022-09-01T15:22:14;25.60;99.90
18950;DHT22;9608;49.288;8.130;2022-09-01T15:24:41;25.40;99.90
18950;DHT22;9608;49.288;8.130;2022-09-01T15:27:08;25.30;99.90
18950;DHT22;9608;49.288;8.130;2022-09-01T15:29:36;25.10;99.90
18950;DHT22;9608;49.288;8.130;2022-09-01T15:32:12;25.00;99.90
18950;DHT22;9608;49.288;8.130;2022-09-01T15:34:39;24.60;99.90
18950;DHT22;9608;49.288;8.130;2022-09-01T15:37:05;24.50;99.90
18950;DHT22;9608;49.288;8.130;2022-09-01T15:39:33;24.50;99.90
18950;DHT22;9608;49.288;8.130;2022-09-01T15:42:01;24.40;99.90
18950;DHT22;9608;49.288;8.130;2022-09-01T15:44:28;24.30;99.90
18950;DHT22;9608;49.288;8.130;2022-09-01T15:46:55;24.30;99.90
18950;DHT22;9608;49.288;8.130;2022-09-01T15:49:23;24.30;99.90
18950;DHT22;9608;49.288;8.130;2022-09-01T15:51:54;24.50;99.90
18950;DHT22;9608;49.288;8.130;2022-09-01T15:54:21;24.80;99.90
18950;DHT22;9608;49.288;8.130;2022-09-01T15:56:49;24.70;99.90
18950;DHT22;9608;49.288;8.130;2022-09-01T15:59:16;24.70;99.90
18950;DHT22;9608;49.288;8.130;2022-09-01T16:01:45;24.80;99.90
18950;DHT22;9608;49.288;8.130;2022-09-01T16:04:13;24.70;99.90
18950;DHT22;9608;49.288;8.130;2022-09-01T16:06:42;24.80;99.90
18950;DHT22;9608;49.288;8.130;2022-09-01T16:09:10;24.40;99.90